Terminal Aerodrome Forecast
Issued by NWS

Home | Current Version | Previous Version | Text Only | Print | Product List | Glossary On
Versions: 1 2 3 4 5 6 7 8 9 10 11 12 13 14 15 16 17 18 19 20 21 22 23 24 25 26 27 28 29 30 31 32 33 34 35
581
FTUS41 KBOX 240849 AAA
TAFBAF
TAF AMD
KBAF 240849Z 2409/2506 18003KT P6SM OVC110
     FM241400 19008KT P6SM VCSH OVC090
     FM242000 20011G23KT P6SM VCSH OVC025
     FM242200 20010G20KT P6SM VCSH OVC035
     FM250000 21009KT P6SM OVC020
     FM250400 22006KT P6SM OVC035=

USA.gov is the U.S. government's official web portal to all federal, state and local government web resources and services.